Time;durP1;ratioP1;P1;durP2;ratioP2;P2;SDS_P1;SDS_P2;PMS_P1;PMS_P2;Temp;Humidity;BMP_temperature;BMP_pressure;BME280_temperature;BME280_humidity;BME280_pressure;Samples;Min_cycle;Max_cycle;Signal;HPM_P1;HPM_P2
2022/07/21 00:01:03;;;;;;;6.68;6.00;;;27.50;94.00;;;;;;5033723;28;20074;-26
2022/07/21 00:03:29;;;;;;;6.40;5.80;;;27.50;94.00;;;;;;5033724;28;20037;-25
2022/07/21 00:05:55;;;;;;;6.18;5.57;;;27.50;93.90;;;;;;5033723;28;20025;-25
2022/07/21 00:08:21;;;;;;;7.57;6.28;;;27.40;93.90;;;;;;5033299;28;20021;-26
2022/07/21 00:10:46;;;;;;;8.10;6.07;;;27.40;93.90;;;;;;5015687;28;20037;-25
2022/07/21 00:13:12;;;;;;;6.60;6.00;;;27.50;93.90;;;;;;5033645;28;20033;-25
2022/07/21 00:15:38;;;;;;;8.30;6.00;;;27.40;93.90;;;;;;5033601;28;20026;-25
2022/07/21 00:18:04;;;;;;;7.03;6.10;;;27.40;93.90;;;;;;5033491;28;20036;-25
2022/07/21 00:20:32;;;;;;;6.72;5.95;;;27.40;93.90;;;;;;5033087;28;20046;-25
2022/07/21 00:22:59;;;;;;;6.60;5.78;;;27.40;93.80;;;;;;5033325;28;20018;-25
2022/07/21 00:25:24;;;;;;;6.90;5.72;;;27.40;93.80;;;;;;5033967;28;20026;-25
2022/07/21 00:27:50;;;;;;;6.40;5.65;;;27.40;93.80;;;;;;5033257;28;20032;-26
2022/07/21 00:30:16;;;;;;;8.45;6.05;;;27.40;93.80;;;;;;5033241;28;20037;-26
2022/07/21 00:32:42;;;;;;;7.88;6.28;;;27.40;93.80;;;;;;5033161;28;20522;-25
2022/07/21 00:35:10;;;;;;;6.60;5.70;;;27.40;93.80;;;;;;5032569;28;20083;-26
2022/07/21 00:37:37;;;;;;;6.22;5.63;;;27.40;93.80;;;;;;5032920;28;20440;-26
2022/07/21 00:40:04;;;;;;;7.07;5.70;;;27.40;93.80;;;;;;5032906;28;20035;-26
2022/07/21 00:42:31;;;;;;;7.07;5.47;;;27.40;94.20;;;;;;5032915;28;20091;-25
2022/07/21 00:44:58;;;;;;;6.40;5.80;;;27.40;93.80;;;;;;5033084;28;20026;-26
2022/07/21 00:47:28;;;;;;;6.45;5.82;;;27.30;93.80;;;;;;5015159;28;20029;-26
2022/07/21 00:49:55;;;;;;;6.18;5.45;;;27.40;93.80;;;;;;5032584;28;20029;-25
2022/07/21 00:52:21;;;;;;;6.65;5.90;;;27.40;93.80;;;;;;5032781;28;20059;-26
2022/07/21 00:54:47;;;;;;;5.88;5.25;;;27.30;93.80;;;;;;5032749;28;20069;-25
2022/07/21 00:57:13;;;;;;;6.72;5.70;;;27.40;93.80;;;;;;5032783;28;20509;-25
2022/07/21 00:59:41;;;;;;;8.43;5.60;;;27.30;93.70;;;;;;5032458;28;20376;-25
2022/07/21 01:02:07;;;;;;;7.15;5.82;;;27.30;94.10;;;;;;5032578;28;20017;-25
2022/07/21 01:04:32;;;;;;;6.45;5.85;;;27.30;93.70;;;;;;5032580;28;20028;-24
2022/07/21 01:07:01;;;;;;;6.43;5.70;;;27.30;93.80;;;;;;5032670;28;20100;-25
2022/07/21 01:09:27;;;;;;;6.35;5.63;;;27.30;93.70;;;;;;5032638;28;20471;-25
2022/07/21 01:11:53;;;;;;;6.38;5.50;;;27.30;93.70;;;;;;5032613;28;20529;-25
2022/07/21 01:14:19;;;;;;;5.78;5.15;;;27.30;93.70;;;;;;5032816;28;20037;-25
2022/07/21 01:16:45;;;;;;;7.90;5.95;;;27.30;93.70;;;;;;5032782;28;20025;-25
2022/07/21 01:19:11;;;;;;;7.63;5.78;;;27.20;93.70;;;;;;5035066;28;20034;-25
2022/07/21 01:21:41;;;;;;;6.57;5.15;;;27.20;93.70;;;;;;5037366;28;20039;-25
2022/07/21 01:24:07;;;;;;;6.72;5.60;;;27.20;93.70;;;;;;5036142;28;20053;-25
2022/07/21 01:26:52;;;;;;;6.88;5.70;;;27.30;93.70;;;;;;5032229;28;20022;-25
2022/07/21 01:29:19;;;;;;;7.40;5.30;;;27.20;93.70;;;;;;5031987;28;20025;-25
2022/07/21 01:31:47;;;;;;;5.78;5.28;;;27.20;93.70;;;;;;5032314;28;20631;-25
2022/07/21 01:34:13;;;;;;;7.35;5.05;;;27.20;93.70;;;;;;5032241;28;20479;-25
2022/07/21 01:36:40;;;;;;;7.45;5.20;;;27.20;93.70;;;;;;5032229;28;20083;-25
2022/07/21 01:41:51;;;;;;;6.43;5.20;;;27.20;93.70;;;;;;5032049;28;20402;-25
2022/07/21 01:44:17;;;;;;;6.78;5.20;;;27.10;93.70;;;;;;5031949;28;20600;-25
2022/07/21 01:46:46;;;;;;;5.88;5.28;;;27.20;93.70;;;;;;5032152;28;20029;-25
2022/07/21 01:49:14;;;;;;;7.63;5.47;;;27.10;93.70;;;;;;5032133;28;20447;-25
2022/07/21 01:51:40;;;;;;;5.53;5.03;;;27.10;93.70;;;;;;5031870;28;20021;-25
2022/07/21 01:54:07;;;;;;;7.20;4.82;;;27.10;93.60;;;;;;5031979;28;20061;-25
2022/07/21 01:56:34;;;;;;;8.27;5.43;;;27.10;93.70;;;;;;5031827;28;20026;-25
2022/07/21 01:59:00;;;;;;;5.93;5.03;;;27.10;93.70;;;;;;5031664;28;20114;-25
2022/07/21 02:01:26;;;;;;;6.50;4.80;;;27.10;93.70;;;;;;5031868;28;20060;-25
2022/07/21 02:03:53;;;;;;;6.25;5.50;;;27.10;93.70;;;;;;5031903;28;20442;-25
2022/07/21 02:06:19;;;;;;;5.22;4.60;;;27.10;93.70;;;;;;5031865;28;20028;-25
2022/07/21 02:08:45;;;;;;;5.30;4.80;;;27.10;93.70;;;;;;5031625;28;20025;-25
2022/07/21 02:11:12;;;;;;;6.13;5.15;;;27.10;93.70;;;;;;5031575;28;20049;-25
2022/07/21 02:13:38;;;;;;;5.75;5.07;;;27.10;93.80;;;;;;5031802;28;20032;-25
2022/07/21 02:16:04;;;;;;;7.70;4.95;;;27.10;93.90;;;;;;5031787;28;20481;-25
2022/07/21 02:18:30;;;;;;;6.13;4.65;;;27.10;93.80;;;;;;5031538;28;20025;-25
2022/07/21 02:20:56;;;;;;;5.38;4.40;;;27.10;93.80;;;;;;5031479;28;20103;-25
2022/07/21 02:23:23;;;;;;;4.60;4.20;;;27.00;93.80;;;;;;5031890;28;20094;-25
2022/07/21 02:25:50;;;;;;;5.82;4.78;;;27.10;93.90;;;;;;5031686;28;20022;-26
2022/07/21 02:28:16;;;;;;;6.82;4.70;;;27.00;93.90;;;;;;5031410;28;20049;-25
2022/07/21 02:30:42;;;;;;;5.88;4.95;;;27.00;93.90;;;;;;5031597;28;20452;-25
2022/07/21 02:33:08;;;;;;;6.47;4.97;;;27.00;93.90;;;;;;5031623;28;20034;-25
2022/07/21 02:35:33;;;;;;;6.82;5.05;;;27.00;93.90;;;;;;5031590;28;20390;-25
2022/07/21 02:37:59;;;;;;;6.53;5.38;;;27.00;93.90;;;;;;5031542;28;20103;-25
2022/07/21 02:40:25;;;;;;;6.03;4.85;;;27.00;93.90;;;;;;5031083;28;20021;-25
2022/07/21 02:42:51;;;;;;;5.32;4.55;;;27.00;93.90;;;;;;5031576;28;20033;-25
2022/07/21 02:45:17;;;;;;;6.90;4.43;;;27.00;94.00;;;;;;5031476;28;20375;-25
2022/07/21 02:48:02;;;;;;;6.25;4.75;;;26.90;94.00;;;;;;5031442;28;20475;-25
2022/07/21 02:50:32;;;;;;;5.65;4.60;;;27.00;94.00;;;;;;5014081;28;20459;-25
2022/07/21 02:52:59;;;;;;;6.38;5.15;;;26.90;94.00;;;;;;5032253;28;20029;-25
2022/07/21 02:55:26;;;;;;;6.20;4.70;;;26.90;94.00;;;;;;5031885;28;20026;-25
2022/07/21 02:58:04;;;;;;;5.45;4.50;;;26.90;94.00;;;;;;5032161;28;20029;-25
2022/07/21 03:00:29;;;;;;;5.90;4.65;;;26.90;94.10;;;;;;5034611;28;20026;-25
2022/07/21 03:02:55;;;;;;;5.05;4.55;;;26.90;94.00;;;;;;5017344;28;20054;-25
2022/07/21 03:05:21;;;;;;;5.95;4.80;;;26.90;94.10;;;;;;5034739;28;20025;-25
2022/07/21 03:07:46;;;;;;;5.13;4.28;;;26.90;94.00;;;;;;5034852;28;20032;-25
2022/07/21 03:10:12;;;;;;;5.07;4.53;;;26.90;94.10;;;;;;5034538;28;20378;-25
2022/07/21 03:12:37;;;;;;;5.38;4.40;;;26.90;94.10;;;;;;5034895;28;20021;-25
2022/07/21 03:15:03;;;;;;;6.65;4.70;;;26.90;94.10;;;;;;5034666;28;20083;-25
2022/07/21 03:17:29;;;;;;;5.78;4.60;;;26.90;94.10;;;;;;5034566;28;20104;-24
2022/07/21 03:19:55;;;;;;;5.25;4.75;;;26.90;94.10;;;;;;5034125;28;20482;-25
2022/07/21 03:22:20;;;;;;;5.15;4.07;;;26.80;94.10;;;;;;5034414;28;20092;-25
2022/07/21 03:24:46;;;;;;;5.45;4.43;;;26.90;94.10;;;;;;5034501;28;20132;-25
2022/07/21 03:27:12;;;;;;;4.97;4.45;;;26.80;94.10;;;;;;5034383;28;20022;-25
2022/07/21 03:29:37;;;;;;;5.22;4.72;;;26.80;94.10;;;;;;5034166;28;20040;-25
2022/07/21 03:32:03;;;;;;;5.80;4.53;;;26.80;94.10;;;;;;5034309;28;20033;-25
2022/07/21 03:34:29;;;;;;;5.38;4.20;;;26.80;94.10;;;;;;5034280;28;20060;-25
2022/07/21 03:36:54;;;;;;;5.10;4.22;;;26.80;94.10;;;;;;5034347;28;20124;-25
2022/07/21 03:39:20;;;;;;;5.20;4.20;;;26.80;94.10;;;;;;5016512;28;20372;-25
2022/07/21 03:41:46;;;;;;;5.35;4.32;;;26.80;94.10;;;;;;5033924;28;20076;-25
2022/07/21 03:44:11;;;;;;;4.75;4.20;;;26.70;94.10;;;;;;5034020;28;20021;-25
2022/07/21 03:46:37;;;;;;;7.55;4.13;;;26.70;94.10;;;;;;5034035;28;20100;-25
2022/07/21 03:49:03;;;;;;;6.80;4.50;;;26.70;94.10;;;;;;5033763;28;20021;-25
2022/07/21 03:51:28;;;;;;;6.95;4.38;;;26.70;94.10;;;;;;5033876;28;20065;-25
2022/07/21 03:53:54;;;;;;;6.53;4.30;;;26.70;94.10;;;;;;5033885;28;20025;-25
2022/07/21 03:56:20;;;;;;;5.68;4.30;;;26.70;94.10;;;;;;5033940;28;20030;-25
2022/07/21 03:58:45;;;;;;;6.88;3.80;;;26.70;94.10;;;;;;5034027;28;20029;-25
2022/07/21 04:01:11;;;;;;;8.93;3.80;;;26.50;94.20;;;;;;5034178;28;20036;-25
2022/07/21 04:03:36;;;;;;;6.28;4.10;;;26.40;94.50;;;;;;5033731;28;20224;-25
2022/07/21 04:06:02;;;;;;;4.53;3.85;;;26.00;94.90;;;;;;5033663;28;20026;-24
2022/07/21 04:08:28;;;;;;;9.13;4.28;;;25.70;95.50;;;;;;5033493;28;20029;-25
2022/07/21 04:10:53;;;;;;;9.98;4.20;;;25.40;95.90;;;;;;5032556;28;20028;-25
2022/07/21 04:13:19;;;;;;;8.77;4.65;;;25.10;96.20;;;;;;5033561;28;20021;-25
2022/07/21 04:15:45;;;;;;;9.20;4.00;;;25.00;96.30;;;;;;5033735;28;20053;-25
2022/07/21 04:18:10;;;;;;;7.40;4.18;;;24.90;96.60;;;;;;5033538;28;20099;-25
2022/07/21 04:20:36;;;;;;;5.97;3.95;;;24.80;96.80;;;;;;5033119;28;20391;-25
2022/07/21 04:23:04;;;;;;;8.68;4.70;;;24.70;97.10;;;;;;5033744;28;20532;-25
2022/07/21 04:25:30;;;;;;;8.18;4.78;;;24.60;97.40;;;;;;5033386;28;20021;-25
2022/07/21 04:27:57;;;;;;;6.10;4.28;;;24.60;97.40;;;;;;5033191;28;20021;-25
2022/07/21 04:30:24;;;;;;;8.63;4.55;;;24.50;97.30;;;;;;5033025;28;20036;-25
2022/07/21 04:32:50;;;;;;;8.50;4.45;;;24.50;97.30;;;;;;5032992;28;20148;-25
2022/07/21 04:35:16;;;;;;;7.75;4.20;;;24.40;97.50;;;;;;5033396;28;20029;-25
2022/07/21 04:37:43;;;;;;;6.47;4.18;;;24.30;97.60;;;;;;5033124;28;20036;-25
2022/07/21 04:40:10;;;;;;;8.27;4.47;;;24.20;97.70;;;;;;5032785;28;20112;-25
2022/07/21 04:42:36;;;;;;;9.38;4.60;;;24.20;97.70;;;;;;5032938;28;20018;-25
2022/07/21 04:45:03;;;;;;;8.45;4.43;;;24.20;97.80;;;;;;5033022;28;20123;-25
2022/07/21 04:47:29;;;;;;;8.98;4.53;;;24.20;97.90;;;;;;5032682;28;20025;-25
2022/07/21 04:49:55;;;;;;;10.05;4.75;;;24.20;97.90;;;;;;5032640;28;20028;-25
2022/07/21 04:52:20;;;;;;;7.38;4.35;;;24.10;98.00;;;;;;5033019;28;20030;-25
2022/07/21 04:54:46;;;;;;;6.35;4.45;;;24.10;98.20;;;;;;5032997;28;20017;-25
2022/07/21 04:57:12;;;;;;;11.05;4.50;;;24.10;98.10;;;;;;5033778;28;20402;-25
2022/07/21 04:59:37;;;;;;;11.38;4.50;;;24.00;98.20;;;;;;5035508;28;20486;-25
2022/07/21 05:02:05;;;;;;;7.30;4.57;;;24.00;98.30;;;;;;5034701;28;20032;-25
2022/07/21 05:04:30;;;;;;;12.05;5.30;;;24.00;98.30;;;;;;5032656;28;20037;-25
2022/07/21 05:06:56;;;;;;;7.32;5.15;;;24.00;98.40;;;;;;5032636;28;20108;-25
2022/07/21 05:09:22;;;;;;;9.60;5.18;;;24.00;98.50;;;;;;5032431;28;20013;-25
2022/07/21 05:11:48;;;;;;;8.20;4.93;;;23.90;98.60;;;;;;5032441;28;20026;-25
2022/07/21 05:14:14;;;;;;;7.45;5.20;;;23.90;98.70;;;;;;5032432;28;20517;-25
2022/07/21 05:16:39;;;;;;;9.05;4.60;;;23.90;98.80;;;;;;5032317;28;20037;-25
2022/07/21 05:19:06;;;;;;;9.02;5.25;;;23.80;98.80;;;;;;5032255;28;20471;-25
2022/07/21 05:21:31;;;;;;;7.10;5.05;;;23.80;98.80;;;;;;5055178;22;20088;-27
2022/07/21 05:23:57;;;;;;;7.43;4.72;;;23.90;99.00;;;;;;5032399;28;20419;-26
2022/07/21 05:26:23;;;;;;;5.82;4.55;;;23.80;99.00;;;;;;5032170;28;20493;-26
2022/07/21 05:28:49;;;;;;;6.28;5.13;;;23.80;99.00;;;;;;5032015;28;20044;-26
2022/07/21 05:31:14;;;;;;;9.00;4.85;;;23.80;99.10;;;;;;5032053;28;20025;-26
2022/07/21 05:33:40;;;;;;;7.72;4.68;;;23.80;99.10;;;;;;5032072;28;20025;-26
2022/07/21 05:36:06;;;;;;;6.15;5.10;;;23.70;98.90;;;;;;5032151;28;20034;-27
2022/07/21 05:38:32;;;;;;;6.68;5.25;;;23.80;98.80;;;;;;5031905;28;20034;-26
2022/07/21 05:41:02;;;;;;;8.57;5.63;;;23.80;99.00;;;;;;5031874;28;20033;-27
2022/07/21 05:43:29;;;;;;;7.10;5.03;;;23.80;99.00;;;;;;5032508;28;20021;-26
2022/07/21 05:45:55;;;;;;;7.63;5.30;;;23.80;99.10;;;;;;5031893;28;20021;-27
2022/07/21 05:48:21;;;;;;;6.45;5.60;;;23.80;99.30;;;;;;5032293;28;20030;-26
2022/07/21 05:50:47;;;;;;;6.93;5.00;;;23.80;99.30;;;;;;5031862;28;20541;-26
2022/07/21 05:53:12;;;;;;;9.13;5.50;;;23.80;99.30;;;;;;5031954;28;20033;-26
2022/07/21 05:55:38;;;;;;;10.35;5.13;;;23.80;99.30;;;;;;5031899;28;20025;-26
2022/07/21 05:58:03;;;;;;;12.85;5.75;;;23.80;99.40;;;;;;5031828;28;20029;-27
2022/07/21 06:00:29;;;;;;;8.85;6.05;;;23.90;99.40;;;;;;5031473;28;20021;-26
2022/07/21 06:02:55;;;;;;;9.27;5.68;;;23.80;99.20;;;;;;5031764;28;20082;-26
2022/07/21 06:05:21;;;;;;;9.23;5.40;;;23.80;99.50;;;;;;5032015;28;20049;-26
2022/07/21 06:07:48;;;;;;;9.02;5.70;;;23.70;99.60;;;;;;5031767;28;20021;-26
2022/07/21 06:10:14;;;;;;;8.93;5.35;;;23.70;99.70;;;;;;5031574;28;20025;-26
2022/07/21 06:12:40;;;;;;;9.07;5.40;;;23.70;99.30;;;;;;5032158;28;20471;-26
2022/07/21 06:15:06;;;;;;;11.65;5.63;;;23.70;99.20;;;;;;5031624;28;20056;-26
2022/07/21 06:17:38;;;;;;;7.88;5.25;;;23.80;99.00;;;;;;5031721;28;20105;-26
2022/07/21 06:20:06;;;;;;;6.63;4.90;;;23.90;98.90;;;;;;5031499;28;20068;-26
2022/07/21 06:22:32;;;;;;;6.60;5.38;;;23.90;98.70;;;;;;5031318;28;20029;-26
2022/07/21 06:24:57;;;;;;;10.13;5.88;;;23.90;98.40;;;;;;5034156;28;20386;-26
2022/07/21 06:27:23;;;;;;;9.13;5.18;;;23.90;98.30;;;;;;5031574;28;20022;-26
2022/07/21 06:29:48;;;;;;;8.18;5.40;;;23.90;98.00;;;;;;5030003;28;20029;-26
2022/07/21 06:32:14;;;;;;;8.07;5.55;;;23.90;98.00;;;;;;5031530;28;20032;-26
2022/07/21 06:34:40;;;;;;;9.82;5.32;;;24.00;98.00;;;;;;5035028;28;20026;-26
2022/07/21 06:37:05;;;;;;;10.00;5.85;;;24.10;98.00;;;;;;5035370;28;20028;-26
2022/07/21 06:39:31;;;;;;;7.05;5.10;;;24.00;98.10;;;;;;5035140;28;20025;-26
2022/07/21 06:41:57;;;;;;;10.05;5.72;;;24.00;98.10;;;;;;5035121;28;20494;-26
2022/07/21 06:44:24;;;;;;;6.47;5.18;;;24.00;97.90;;;;;;5035230;28;20104;-26
2022/07/21 06:46:50;;;;;;;5.85;5.10;;;24.00;98.10;;;;;;5035256;28;20025;-26
2022/07/21 06:49:16;;;;;;;7.28;4.97;;;23.90;97.70;;;;;;5035274;28;20502;-26
2022/07/21 06:51:42;;;;;;;10.82;5.28;;;23.90;97.70;;;;;;5035054;28;20029;-26
2022/07/21 06:54:07;;;;;;;10.07;5.60;;;23.90;97.50;;;;;;5034962;28;20022;-26
2022/07/21 06:56:33;;;;;;;9.07;4.88;;;23.90;97.50;;;;;;5034935;28;20104;-26
2022/07/21 06:58:58;;;;;;;9.45;4.47;;;23.90;97.00;;;;;;5034781;28;20040;-26
2022/07/21 07:01:24;;;;;;;8.73;4.85;;;24.00;96.90;;;;;;5034862;28;20075;-26
2022/07/21 07:03:50;;;;;;;13.18;5.07;;;24.20;96.70;;;;;;5034972;28;20075;-26
2022/07/21 07:06:15;;;;;;;13.02;5.22;;;24.40;96.50;;;;;;5034746;28;20018;-27
2022/07/21 07:08:41;;;;;;;15.02;5.07;;;24.50;96.30;;;;;;5034489;28;20021;-27
2022/07/21 07:11:07;;;;;;;11.38;5.13;;;24.40;96.60;;;;;;5034641;28;20029;-27
2022/07/21 07:13:32;;;;;;;10.32;4.72;;;24.40;96.70;;;;;;5034979;28;20025;-27
2022/07/21 07:15:58;;;;;;;8.18;4.82;;;24.50;96.70;;;;;;5034757;28;20021;-27
2022/07/21 07:18:24;;;;;;;11.32;4.68;;;24.50;96.50;;;;;;5034457;28;20505;-27
2022/07/21 07:20:51;;;;;;;8.23;4.68;;;24.70;96.30;;;;;;5034334;28;20087;-27
2022/07/21 07:23:17;;;;;;;6.28;4.05;;;24.90;96.20;;;;;;5034623;28;20029;-27
2022/07/21 07:25:42;;;;;;;8.73;4.47;;;25.00;96.00;;;;;;5034464;28;20025;-27
2022/07/21 07:28:08;;;;;;;8.05;4.70;;;25.10;95.90;;;;;;5034668;28;20382;-27
2022/07/21 07:30:35;;;;;;;6.93;4.22;;;25.20;95.70;;;;;;5034289;28;20072;-27
2022/07/21 07:33:00;;;;;;;6.78;4.47;;;25.20;95.70;;;;;;5034432;28;20108;-27
2022/07/21 07:35:26;;;;;;;6.05;4.60;;;25.20;95.60;;;;;;5034634;28;20562;-27
2022/07/21 07:37:52;;;;;;;6.18;4.47;;;25.30;95.50;;;;;;5034214;28;20033;-27
2022/07/21 07:40:20;;;;;;;7.57;4.65;;;25.40;95.50;;;;;;5033907;28;20039;-27
2022/07/21 07:42:46;;;;;;;7.88;4.78;;;25.40;95.40;;;;;;5034101;28;20017;-27
2022/07/21 07:45:13;;;;;;;7.93;4.63;;;25.40;95.40;;;;;;5033948;28;20097;-26
2022/07/21 07:47:38;;;;;;;6.88;4.53;;;25.40;95.40;;;;;;5034090;28;20112;-26
2022/07/21 07:50:08;;;;;;;5.85;3.80;;;25.50;95.40;;;;;;5032589;28;20656;-26
2022/07/21 07:52:34;;;;;;;5.13;4.15;;;25.50;95.40;;;;;;5033965;28;20021;-26
2022/07/21 07:55:03;;;;;;;7.40;4.00;;;25.50;95.30;;;;;;5033912;28;20067;-26
2022/07/21 07:57:29;;;;;;;6.22;3.95;;;25.50;95.30;;;;;;5033897;28;20098;-26
2022/07/21 07:59:54;;;;;;;8.07;4.75;;;25.50;95.30;;;;;;5033609;28;20507;-26
2022/07/21 08:02:20;;;;;;;5.43;4.43;;;25.50;95.20;;;;;;5033880;28;20479;-26
2022/07/21 08:04:46;;;;;;;8.07;4.10;;;25.50;95.20;;;;;;5033748;28;20501;-26
2022/07/21 08:07:11;;;;;;;4.53;3.97;;;25.50;95.20;;;;;;5033630;28;20060;-25
2022/07/21 08:09:39;;;;;;;6.40;4.28;;;25.50;95.20;;;;;;5033331;28;20027;-26
2022/07/21 08:12:05;;;;;;;5.78;3.97;;;25.60;95.20;;;;;;5033589;28;20032;-26
2022/07/21 08:14:31;;;;;;;5.40;4.05;;;25.60;95.10;;;;;;5033608;28;20203;-26
2022/07/21 08:16:58;;;;;;;5.75;3.90;;;25.60;95.10;;;;;;5033541;28;20029;-26
2022/07/21 08:19:24;;;;;;;8.05;4.20;;;25.60;95.00;;;;;;5033281;28;20025;-26
2022/07/21 08:21:50;;;;;;;5.07;3.92;;;25.70;95.10;;;;;;5033147;28;20627;-25
2022/07/21 08:24:16;;;;;;;5.47;3.60;;;25.70;95.00;;;;;;5033341;28;20108;-26
2022/07/21 08:26:41;;;;;;;4.28;3.78;;;25.70;95.00;;;;;;5033365;28;20494;-26
2022/07/21 08:29:07;;;;;;;6.97;3.95;;;25.70;94.90;;;;;;5033091;28;20399;-25
2022/07/21 08:31:33;;;;;;;5.22;4.00;;;25.80;95.00;;;;;;5033200;28;20405;-26
2022/07/21 08:33:58;;;;;;;5.25;4.00;;;25.80;94.90;;;;;;5033233;28;20075;-26
2022/07/21 08:36:24;;;;;;;5.88;4.15;;;25.80;94.90;;;;;;5033087;28;20029;-26
2022/07/21 08:38:50;;;;;;;8.27;4.28;;;25.80;94.80;;;;;;5032702;28;20025;-26
2022/07/21 08:41:15;;;;;;;4.97;4.03;;;25.80;94.90;;;;;;5032928;28;20025;-25
2022/07/21 08:43:42;;;;;;;4.43;3.90;;;25.80;94.90;;;;;;5032943;28;20029;-25
2022/07/21 08:46:09;;;;;;;4.43;3.47;;;25.80;94.90;;;;;;5032883;28;20017;-26
2022/07/21 08:48:36;;;;;;;4.70;3.72;;;25.80;94.90;;;;;;5032646;28;20033;-25
2022/07/21 08:51:02;;;;;;;4.93;3.50;;;25.80;95.20;;;;;;5032758;28;20032;-25
2022/07/21 08:53:28;;;;;;;4.20;3.63;;;25.80;94.80;;;;;;5032759;28;20026;-26
2022/07/21 08:55:55;;;;;;;9.35;3.60;;;25.80;94.70;;;;;;5026755;28;20089;-26
2022/07/21 08:58:21;;;;;;;5.88;3.28;;;25.70;92.10;;;;;;5013032;28;20611;-26
2022/07/21 09:00:49;;;;;;;7.30;3.40;;;25.60;92.60;;;;;;5012830;28;20068;-26
2022/07/21 09:03:19;;;;;;;10.43;3.60;;;25.60;92.80;;;;;;5012857;28;20075;-26
2022/07/21 09:06:11;;;;;;;5.70;3.38;;;25.70;92.90;;;;;;5012834;28;20022;-26
2022/07/21 09:08:41;;;;;;;5.32;3.65;;;25.70;92.90;;;;;;5012695;28;20491;-26
2022/07/21 09:11:13;;;;;;;6.25;3.70;;;25.80;93.00;;;;;;5012759;28;20036;-26
2022/07/21 09:13:44;;;;;;;4.90;3.30;;;25.80;93.00;;;;;;5012759;28;20494;-26
2022/07/21 09:16:10;;;;;;;5.57;3.35;;;25.80;93.10;;;;;;5012637;28;20029;-26
2022/07/21 09:18:56;;;;;;;4.22;3.33;;;25.80;93.10;;;;;;5012481;28;20040;-26
2022/07/21 09:21:22;;;;;;;5.40;3.28;;;25.90;93.20;;;;;;5012238;28;20041;-26
2022/07/21 09:23:47;;;;;;;5.40;3.17;;;25.90;93.20;;;;;;5012592;28;20102;-26
2022/07/21 09:26:13;;;;;;;4.43;3.08;;;25.90;93.30;;;;;;5012583;28;20061;-25
2022/07/21 09:28:40;;;;;;;5.35;3.53;;;25.90;93.30;;;;;;5012208;28;20014;-26
2022/07/21 09:31:14;;;;;;;6.97;2.85;;;26.00;93.40;;;;;;5012375;28;20030;-25
2022/07/21 09:33:45;;;;;;;4.03;2.45;;;25.90;91.80;;;;;;5012432;28;20026;-25
2022/07/21 09:36:16;;;;;;;3.63;2.42;;;25.90;90.10;;;;;;5012458;28;20022;-26
2022/07/21 09:38:50;;;;;;;6.38;2.65;;;25.80;90.50;;;;;;5012247;28;20116;-25
2022/07/21 09:41:22;;;;;;;5.93;2.63;;;25.90;90.70;;;;;;5012133;28;20030;-26
2022/07/21 09:43:50;;;;;;;6.85;2.47;;;26.10;90.90;;;;;;5012427;28;20029;-25
2022/07/21 09:46:23;;;;;;;5.05;2.78;;;26.20;90.90;;;;;;5012444;28;20076;-26
2022/07/21 09:48:51;;;;;;;5.10;2.55;;;26.40;91.10;;;;;;5012536;28;20103;-25
2022/07/21 09:51:37;;;;;;;3.35;2.60;;;26.40;91.10;;;;;;5013009;28;20030;-25
2022/07/21 09:54:04;;;;;;;4.22;2.38;;;26.50;91.20;;;;;;5023652;28;20083;-25
2022/07/21 09:56:41;;;;;;;6.18;2.45;;;26.60;91.30;;;;;;5022440;28;20128;-25
2022/07/21 09:59:09;;;;;;;3.65;2.58;;;26.60;91.30;;;;;;5012146;28;20061;-25
2022/07/21 10:01:38;;;;;;;2.90;2.60;;;26.60;91.50;;;;;;5019927;28;20036;-25
2022/07/21 10:04:04;;;;;;;7.13;2.50;;;26.60;91.50;;;;;;5015897;28;20014;-25
2022/07/21 10:06:32;;;;;;;4.75;2.92;;;26.60;91.60;;;;;;5012113;28;20033;-25
2022/07/21 10:09:00;;;;;;;2.75;2.42;;;26.60;91.70;;;;;;5014264;28;20033;-25
2022/07/21 10:11:27;;;;;;;5.30;2.72;;;26.60;91.70;;;;;;5016016;28;20052;-25
2022/07/21 10:13:54;;;;;;;3.25;2.75;;;26.60;91.80;;;;;;5016121;28;20040;-25
2022/07/21 10:16:20;;;;;;;5.78;3.08;;;26.70;91.80;;;;;;5016037;28;20030;-25
2022/07/21 10:19:22;;;;;;;3.45;2.75;;;26.70;91.80;;;;;;5015554;28;20029;-25
2022/07/21 10:22:24;;;;;;;3.05;2.72;;;26.70;91.80;;;;;;5015657;28;20033;-25
2022/07/21 10:24:50;;;;;;;3.70;2.70;;;26.70;91.90;;;;;;5015197;28;20069;-25
2022/07/21 10:27:16;;;;;;;3.40;2.83;;;26.60;91.90;;;;;;5016140;28;20419;-25
2022/07/21 10:29:48;;;;;;;3.75;2.83;;;26.60;91.90;;;;;;5015571;28;20084;-25
2022/07/21 10:32:18;;;;;;;3.80;2.50;;;26.70;92.00;;;;;;5015650;28;20045;-25
2022/07/21 10:34:44;;;;;;;4.20;2.78;;;26.60;92.00;;;;;;5015633;28;20032;-25
2022/07/21 10:37:11;;;;;;;3.53;2.50;;;26.70;92.00;;;;;;5015626;28;20143;-25
2022/07/21 10:39:39;;;;;;;3.85;2.60;;;26.70;92.00;;;;;;4997627;28;20033;-25
2022/07/21 10:42:16;;;;;;;3.03;2.63;;;26.70;92.10;;;;;;5015440;28;20029;-25
2022/07/21 10:44:44;;;;;;;5.45;2.72;;;26.80;92.10;;;;;;5015493;28;20495;-25
2022/07/21 10:47:12;;;;;;;2.90;2.40;;;26.80;92.10;;;;;;5015428;28;20022;-25
2022/07/21 10:49:52;;;;;;;3.83;2.60;;;26.90;92.10;;;;;;5015226;28;20026;-25
2022/07/21 10:52:35;;;;;;;3.10;2.42;;;26.90;92.00;;;;;;5015294;28;20041;-25
2022/07/21 10:55:10;;;;;;;3.00;2.60;;;26.90;92.30;;;;;;5015358;28;20105;-25
2022/07/21 10:58:07;;;;;;;2.92;2.63;;;27.00;92.00;;;;;;5015263;28;20265;-26
2022/07/21 11:00:36;;;;;;;3.30;2.72;;;27.00;92.00;;;;;;5014875;28;20117;-25
2022/07/21 11:03:04;;;;;;;2.85;2.50;;;27.00;92.00;;;;;;5015116;28;20072;-25
2022/07/21 11:05:32;;;;;;;3.00;2.70;;;27.00;92.00;;;;;;5015172;28;20064;-25
2022/07/21 11:08:16;;;;;;;3.17;2.50;;;27.00;91.90;;;;;;5015049;28;20021;-25
2022/07/21 11:10:45;;;;;;;2.90;2.50;;;27.00;91.90;;;;;;5014839;28;20018;-25
2022/07/21 11:13:12;;;;;;;3.08;2.40;;;27.00;91.90;;;;;;5014997;28;20030;-25
2022/07/21 11:15:48;;;;;;;3.00;2.70;;;27.00;91.90;;;;;;5015028;28;20656;-25
2022/07/21 11:18:18;;;;;;;2.92;2.50;;;27.00;91.90;;;;;;5014521;28;20064;-25
2022/07/21 11:21:01;;;;;;;3.40;2.75;;;27.00;91.90;;;;;;5014281;28;20022;-25
2022/07/21 11:23:41;;;;;;;2.60;2.40;;;27.00;91.90;;;;;;5014734;28;20022;-25
2022/07/21 11:26:08;;;;;;;2.60;2.30;;;27.00;91.90;;;;;;5014847;28;20105;-25
2022/07/21 11:28:34;;;;;;;2.92;2.55;;;27.00;92.00;;;;;;5014430;28;20022;-25
2022/07/21 11:31:07;;;;;;;5.03;2.58;;;27.00;92.00;;;;;;5014560;28;20032;-25
2022/07/21 11:33:33;;;;;;;3.65;2.65;;;27.00;92.00;;;;;;5014491;28;20382;-25
2022/07/21 11:35:58;;;;;;;2.80;2.30;;;26.90;92.00;;;;;;5014527;28;20110;-25
2022/07/21 11:38:24;;;;;;;2.58;2.38;;;26.90;92.00;;;;;;5014303;28;20065;-25
2022/07/21 11:40:50;;;;;;;2.90;2.30;;;26.90;92.10;;;;;;5014314;28;20101;-25
2022/07/21 11:43:15;;;;;;;3.35;2.60;;;26.90;92.10;;;;;;5014499;28;20368;-25
2022/07/21 11:45:54;;;;;;;3.97;2.60;;;26.90;92.10;;;;;;5014403;28;20469;-25
2022/07/21 11:48:33;;;;;;;2.90;2.60;;;27.00;92.10;;;;;;5014023;28;20072;-25
2022/07/21 11:51:03;;;;;;;4.93;2.40;;;27.00;92.00;;;;;;5014219;28;20033;-25
2022/07/21 11:53:29;;;;;;;3.05;2.65;;;27.00;92.40;;;;;;5014262;28;20030;-25
2022/07/21 11:55:55;;;;;;;3.05;2.42;;;27.00;92.00;;;;;;5014204;28;20037;-25
2022/07/21 11:58:20;;;;;;;3.45;2.53;;;27.00;91.90;;;;;;5013942;28;20030;-25
2022/07/21 12:00:47;;;;;;;2.78;2.47;;;27.10;91.90;;;;;;5013842;28;20026;-25
2022/07/21 12:03:13;;;;;;;3.67;2.67;;;27.10;91.90;;;;;;5014028;28;20376;-25
2022/07/21 12:05:40;;;;;;;2.70;2.40;;;27.10;91.90;;;;;;5014038;28;20045;-25
2022/07/21 12:08:06;;;;;;;2.70;2.35;;;27.10;91.80;;;;;;5013859;28;20045;-25
2022/07/21 12:10:32;;;;;;;2.80;2.47;;;27.10;91.80;;;;;;5013627;28;20515;-25
2022/07/21 12:13:06;;;;;;;2.92;2.60;;;27.10;91.80;;;;;;4996619;28;20079;-25
2022/07/21 12:15:34;;;;;;;2.60;2.40;;;27.10;91.80;;;;;;4996157;28;20514;-25
2022/07/21 12:18:03;;;;;;;3.10;2.45;;;27.10;91.80;;;;;;5013691;28;20022;-25
2022/07/21 12:20:40;;;;;;;2.40;2.20;;;27.10;91.80;;;;;;5013427;28;20026;-25
2022/07/21 12:23:22;;;;;;;2.75;2.25;;;27.10;91.90;;;;;;5013731;28;20037;-25
2022/07/21 12:25:48;;;;;;;2.80;2.50;;;27.10;91.90;;;;;;5013964;28;20026;-25
2022/07/21 12:28:14;;;;;;;3.38;2.40;;;27.10;91.90;;;;;;5013340;28;20022;-25
2022/07/21 12:30:45;;;;;;;3.45;2.13;;;27.10;91.90;;;;;;5012685;28;20464;-25
2022/07/21 12:33:14;;;;;;;2.53;2.20;;;27.10;91.90;;;;;;5013518;28;20029;-25
2022/07/21 12:35:46;;;;;;;2.83;2.50;;;27.20;91.90;;;;;;5013456;28;20022;-25
2022/07/21 12:38:14;;;;;;;2.47;2.28;;;27.20;91.90;;;;;;5013071;28;20115;-25
2022/07/21 12:40:44;;;;;;;2.58;2.38;;;27.20;91.90;;;;;;5013159;28;20430;-25
2022/07/21 12:43:16;;;;;;;3.17;2.40;;;27.20;91.90;;;;;;5013306;28;20112;-25
2022/07/21 12:45:54;;;;;;;2.20;2.00;;;27.20;91.90;;;;;;5013227;28;20025;-25
2022/07/21 12:48:27;;;;;;;3.25;2.38;;;27.20;91.90;;;;;;5013067;28;20382;-25
2022/07/21 12:51:09;;;;;;;3.08;2.58;;;27.20;91.90;;;;;;5013124;28;20604;-26